createdAt,value
2022-09-28T00:02:08.244Z,98343.13
2022-09-28T00:04:34.809Z,98338.41
2022-09-28T00:07:01.454Z,98339.72
2022-09-28T00:09:27.881Z,98336.41
2022-09-28T00:11:54.256Z,98325.13
2022-09-28T00:14:21.101Z,98324.44
2022-09-28T00:16:48.654Z,98324.06
2022-09-28T00:19:15.576Z,98319.88
2022-09-28T00:21:42.305Z,98307.53
2022-09-28T00:24:13.318Z,98310.19
2022-09-28T00:26:45.809Z,98299.84
2022-09-28T00:29:38.489Z,98299.56
2022-09-28T00:32:06.473Z,98295.50
2022-09-28T00:34:39.851Z,98300.41
2022-09-28T00:37:08.834Z,98286.47
2022-09-28T00:39:36.221Z,98278.88
2022-09-28T00:42:04.095Z,98272.13
2022-09-28T00:44:40.831Z,98263.59
2022-09-28T00:47:31.183Z,98269.66
2022-09-28T00:50:00.696Z,98260.09
2022-09-28T00:52:50.597Z,98257.13
2022-09-28T00:55:22.475Z,98252.66
2022-09-28T00:57:53.051Z,98238.16
2022-09-28T01:00:19.540Z,98242.97
2022-09-28T01:02:47.481Z,98244.13
2022-09-28T01:05:14.749Z,98242.59
2022-09-28T01:07:44.185Z,98235.00
2022-09-28T01:10:10.621Z,98230.16
2022-09-28T01:12:36.941Z,98235.63
2022-09-28T01:15:05.493Z,98238.13
2022-09-28T01:17:49.130Z,98221.59
2022-09-28T01:20:40.189Z,98226.91
2022-09-28T01:23:37.375Z,98228.53
2022-09-28T01:26:34.272Z,98226.56
2022-09-28T01:29:29.799Z,98227.34
2022-09-28T01:32:18.989Z,98225.53
2022-09-28T01:35:17.569Z,98221.28
2022-09-28T01:37:52.992Z,98222.41
2022-09-28T01:40:24.520Z,98223.44
2022-09-28T01:42:56.828Z,98223.53
2022-09-28T01:45:28.634Z,98219.66
2022-09-28T01:48:01.834Z,98218.06
2022-09-28T01:50:31.066Z,98216.97
2022-09-28T01:53:06.343Z,98211.25
2022-09-28T01:55:43.928Z,98209.75
2022-09-28T01:58:13.282Z,98211.03
2022-09-28T02:00:44.431Z,98214.75
2022-09-28T02:03:18.558Z,98207.63
2022-09-28T02:05:55.181Z,98201.06
2022-09-28T02:08:21.460Z,98201.97
2022-09-28T02:10:52.831Z,98207.06
2022-09-28T02:13:28.255Z,98201.28
2022-09-28T02:16:02.720Z,98200.22
2022-09-28T02:18:29.386Z,98205.63
2022-09-28T02:21:08.910Z,98199.31
2022-09-28T02:23:38.462Z,98204.69
2022-09-28T02:26:13.857Z,98195.28
2022-09-28T02:28:40.325Z,98193.34
2022-09-28T02:31:07.065Z,98185.88
2022-09-28T02:33:39.730Z,98175.72
2022-09-28T02:36:06.745Z,98178.06
2022-09-28T02:38:33.253Z,98183.44
2022-09-28T02:41:09.187Z,98189.72
2022-09-28T02:43:44.242Z,98193.97
2022-09-28T02:46:22.524Z,98199.81
2022-09-28T02:49:22.462Z,98193.63
2022-09-28T02:52:04.074Z,98200.44
2022-09-28T02:55:09.403Z,98198.09
2022-09-28T02:58:03.530Z,98191.75
2022-09-28T03:00:35.272Z,98201.63
2022-09-28T03:03:35.977Z,98197.06
2022-09-28T03:06:08.871Z,98195.47
2022-09-28T03:08:41.250Z,98193.78
2022-09-28T03:11:18.105Z,98189.78
2022-09-28T03:13:44.861Z,98196.34
2022-09-28T03:16:14.415Z,98197.94
2022-09-28T03:18:41.217Z,98200.28
2022-09-28T03:21:10.843Z,98204.97
2022-09-28T03:23:37.456Z,98204.88
2022-09-28T03:26:04.013Z,98202.78
2022-09-28T03:28:30.504Z,98194.16
2022-09-28T03:30:57.145Z,98205.06
2022-09-28T03:33:23.564Z,98218.41
2022-09-28T03:35:50.619Z,98204.41
2022-09-28T03:38:18.497Z,98206.84
2022-09-28T03:40:53.266Z,98206.66
2022-09-28T03:43:19.631Z,98206.84
2022-09-28T03:45:52.919Z,98200.19
2022-09-28T03:48:25.142Z,98197.38
2022-09-28T03:50:58.689Z,98199.69
2022-09-28T03:53:25.863Z,98203.50
2022-09-28T03:55:53.286Z,98211.72
2022-09-28T03:58:23.008Z,98212.63
2022-09-28T04:00:50.195Z,98208.56
2022-09-28T04:03:16.743Z,98201.22
2022-09-28T04:05:53.391Z,98201.22
2022-09-28T04:08:20.207Z,98194.91
2022-09-28T04:10:47.208Z,98208.19
2022-09-28T04:13:14.244Z,98198.44
2022-09-28T04:15:40.641Z,98210.56
2022-09-28T04:18:13.540Z,98209.97
2022-09-28T04:20:45.376Z,98213.91
2022-09-28T04:23:12.322Z,98201.41
2022-09-28T04:25:39.597Z,98208.19
2022-09-28T04:28:24.917Z,98205.97
2022-09-28T04:30:51.279Z,98208.59
2022-09-28T04:33:17.697Z,98209.84
2022-09-28T04:35:44.123Z,98208.22
2022-09-28T04:38:10.511Z,98211.81
2022-09-28T04:40:36.954Z,98213.25
2022-09-28T04:43:03.356Z,98210.59
2022-09-28T04:45:29.782Z,98219.44
2022-09-28T04:47:56.187Z,98216.19
2022-09-28T04:50:22.637Z,98215.69
2022-09-28T04:52:48.999Z,98218.09
2022-09-28T04:55:16.815Z,98217.06
2022-09-28T04:57:43.190Z,98223.56
2022-09-28T05:00:11.500Z,98223.38
2022-09-28T05:02:38.062Z,98225.84
2022-09-28T05:05:04.823Z,98236.88
2022-09-28T05:07:31.183Z,98228.66
2022-09-28T05:09:57.627Z,98236.16
2022-09-28T05:12:24.400Z,98237.19
2022-09-28T05:14:50.775Z,98246.47
2022-09-28T05:17:17.151Z,98234.41
2022-09-28T05:19:43.497Z,98240.47
2022-09-28T05:22:14.655Z,98239.09
2022-09-28T05:24:41.185Z,98237.53
2022-09-28T05:27:07.605Z,98242.81
2022-09-28T05:29:33.951Z,98246.41
2022-09-28T05:32:01.627Z,98252.78
2022-09-28T05:34:28.707Z,98252.25
2022-09-28T05:36:55.121Z,98256.63
2022-09-28T05:39:21.458Z,98258.25
2022-09-28T05:41:47.856Z,98258.50
2022-09-28T05:44:14.248Z,98268.31
2022-09-28T05:46:40.648Z,98264.00
2022-09-28T05:49:07.186Z,98269.50
2022-09-28T05:51:33.518Z,98269.50
2022-09-28T05:54:05.385Z,98268.22
2022-09-28T05:56:32.270Z,98272.38
2022-09-28T05:58:58.888Z,98285.50
2022-09-28T06:01:25.396Z,98281.75
2022-09-28T06:03:51.797Z,98278.63
2022-09-28T06:06:18.128Z,98281.84
2022-09-28T06:08:46.204Z,98286.38
2022-09-28T06:11:12.748Z,98286.13
2022-09-28T06:13:39.941Z,98283.06
2022-09-28T06:16:08.106Z,98286.50
2022-09-28T06:18:34.600Z,98284.25
2022-09-28T06:21:01.394Z,98286.41
2022-09-28T06:23:27.749Z,98287.94
2022-09-28T06:25:54.103Z,98286.84
2022-09-28T06:28:20.455Z,98288.72
2022-09-28T06:30:48.159Z,98294.50
2022-09-28T06:33:14.990Z,98289.56
2022-09-28T06:35:42.212Z,98297.69
2022-09-28T06:38:09.085Z,98295.66
2022-09-28T06:40:36.270Z,98302.56
2022-09-28T06:43:06.569Z,98302.69
2022-09-28T06:45:32.924Z,98294.66
2022-09-28T06:48:01.168Z,98291.34
2022-09-28T06:50:33.349Z,98296.19
2022-09-28T06:53:00.930Z,98306.06
2022-09-28T06:55:28.438Z,98301.44
2022-09-28T06:57:59.657Z,98301.81
2022-09-28T07:06:23.701Z,98312.06
2022-09-28T07:09:10.293Z,98322.78
2022-09-28T07:12:06.379Z,98327.44
2022-09-28T07:15:02.161Z,98330.50
2022-09-28T07:17:57.001Z,98333.00
2022-09-28T07:20:50.368Z,98337.06
2022-09-28T07:23:27.820Z,98338.47
2022-09-28T07:26:03.911Z,98347.16
2022-09-28T07:28:42.642Z,98351.69
2022-09-28T07:31:16.208Z,98363.66
2022-09-28T07:33:52.533Z,98366.97
2022-09-28T07:36:21.311Z,98368.41
2022-09-28T07:38:51.277Z,98373.44
2022-09-28T07:41:34.877Z,98367.25
2022-09-28T07:44:08.070Z,98370.16
2022-09-28T07:46:43.611Z,98380.75
2022-09-28T07:49:19.523Z,98373.53
2022-09-28T07:51:53.829Z,98377.13
2022-09-28T07:54:28.815Z,98383.94
2022-09-28T07:59:40.985Z,98387.09
2022-09-28T08:02:09.812Z,98386.22
2022-09-28T08:04:36.168Z,98391.31
2022-09-28T08:07:03.055Z,98396.75
2022-09-28T08:09:29.841Z,98410.41
2022-09-28T08:11:57.726Z,98397.63
2022-09-28T08:14:24.685Z,98414.59
2022-09-28T08:16:53.367Z,98411.41
2022-09-28T08:19:19.837Z,98416.91
2022-09-28T08:21:46.221Z,98421.53
2022-09-28T08:24:17.956Z,98415.94
2022-09-28T08:26:44.848Z,98428.22
2022-09-28T08:29:11.294Z,98434.97
2022-09-28T08:31:37.677Z,98433.38
2022-09-28T08:34:04.124Z,98435.19
2022-09-28T08:36:30.460Z,98436.03
2022-09-28T08:38:56.957Z,98441.38
2022-09-28T08:41:55.659Z,98433.00
2022-09-28T08:44:24.999Z,98433.22
2022-09-28T08:47:05.337Z,98437.84
2022-09-28T08:49:38.766Z,98434.88
2022-09-28T08:52:08.129Z,98432.09
2022-09-28T08:54:44.376Z,98432.25
2022-09-28T08:57:22.813Z,98441.91
2022-09-28T08:59:54.601Z,98439.22
2022-09-28T09:02:39.225Z,98442.09
2022-09-28T09:05:14.722Z,98441.97
2022-09-28T09:08:01.921Z,98443.56
2022-09-28T09:10:44.481Z,98442.41
2022-09-28T09:13:32.085Z,98448.16
2022-09-28T09:16:16.378Z,98446.47
2022-09-28T09:18:54.505Z,98448.78
2022-09-28T09:21:41.677Z,98451.53
2022-09-28T09:24:18.759Z,98451.28
2022-09-28T09:26:45.664Z,98449.75
2022-09-28T09:29:27.367Z,98451.31
2022-09-28T09:32:08.079Z,98456.22
2022-09-28T09:34:45.325Z,98458.13
2022-09-28T09:37:54.176Z,98453.03
2022-09-28T09:40:27.337Z,98455.72
2022-09-28T09:43:12.706Z,98453.44
2022-09-28T09:45:58.036Z,98450.72
2022-09-28T09:48:47.717Z,98462.53
2022-09-28T09:51:26.453Z,98463.28
2022-09-28T09:54:00.309Z,98458.09
2022-09-28T09:56:38.442Z,98457.31
2022-09-28T09:59:18.023Z,98459.91
2022-09-28T10:01:44.811Z,98465.69
2022-09-28T10:04:21.078Z,98457.19
2022-09-28T10:06:49.753Z,98456.03
2022-09-28T10:09:43.810Z,98461.16
2022-09-28T10:12:15.499Z,98458.47
2022-09-28T10:14:42.070Z,98465.03
2022-09-28T10:17:15.293Z,98470.47
2022-09-28T10:19:42.555Z,98468.97
2022-09-28T10:22:17.960Z,98470.41
2022-09-28T10:24:48.743Z,98478.34
2022-09-28T10:27:23.614Z,98476.59
2022-09-28T10:29:54.444Z,98475.81
2022-09-28T10:32:24.138Z,98475.94
2022-09-28T10:34:52.505Z,98472.72
2022-09-28T10:37:19.530Z,98488.13
2022-09-28T10:39:50.731Z,98474.78
2022-09-28T10:42:20.996Z,98489.31
2022-09-28T10:44:52.842Z,98489.94
2022-09-28T10:47:21.980Z,98489.97
2022-09-28T10:49:51.077Z,98490.69
2022-09-28T10:52:40.253Z,98497.88
2022-09-28T10:55:32.981Z,98497.81
2022-09-28T10:58:00.364Z,98500.84
2022-09-28T11:00:41.719Z,98502.91
2022-09-28T11:03:20.609Z,98494.75
2022-09-28T11:06:13.297Z,98498.44
2022-09-28T11:08:44.551Z,98499.09
2022-09-28T11:11:15.184Z,98498.13
2022-09-28T11:13:53.483Z,98492.94
2022-09-28T11:16:29.441Z,98496.94
2022-09-28T11:18:57.687Z,98484.53
2022-09-28T11:21:27.639Z,98492.19
2022-09-28T11:24:19.513Z,98494.41
2022-09-28T11:26:50.605Z,98494.25
2022-09-28T11:29:32.370Z,98482.34
2022-09-28T11:32:04.106Z,98491.50
2022-09-28T11:34:57.873Z,98492.69
2022-09-28T11:37:47.403Z,98482.03
2022-09-28T11:40:38.392Z,98486.06
2022-09-28T11:43:17.276Z,98492.78
2022-09-28T11:46:09.086Z,98491.69
2022-09-28T11:48:47.538Z,98496.13
2022-09-28T11:51:23.079Z,98492.34
2022-09-28T11:53:55.525Z,98480.28
2022-09-28T11:56:35.918Z,98487.63
2022-09-28T11:59:18.805Z,98479.69
2022-09-28T12:01:56.676Z,98482.13
2022-09-28T12:04:38.010Z,98473.75
2022-09-28T12:07:19.576Z,98484.63
2022-09-28T12:09:53.548Z,98478.03
2022-09-28T12:12:22.497Z,98484.34
2022-09-28T12:14:54.208Z,98482.16
2022-09-28T12:17:30.735Z,98483.19
2022-09-28T12:20:05.332Z,98489.22
2022-09-28T12:22:37.031Z,98491.34
2022-09-28T12:25:10.174Z,98485.03
2022-09-28T12:27:42.153Z,98487.22
2022-09-28T12:30:19.375Z,98482.84
2022-09-28T12:33:09.131Z,98478.50
2022-09-28T12:36:01.065Z,98483.22
2022-09-28T12:39:30.919Z,98480.38
2022-09-28T12:42:05.582Z,98481.88
2022-09-28T12:44:34.991Z,98480.75
2022-09-28T12:47:23.335Z,98482.31
2022-09-28T12:50:51.292Z,98472.28
2022-09-28T12:53:46.322Z,98467.44
2022-09-28T12:56:24.806Z,98476.16
2022-09-28T12:59:13.112Z,98473.38
2022-09-28T13:01:48.748Z,98468.13
2022-09-28T13:04:52.854Z,98475.63
2022-09-28T13:07:35.348Z,98478.34
2022-09-28T13:10:19.543Z,98475.78
2022-09-28T13:13:19.328Z,98478.09
2022-09-28T13:15:57.665Z,98479.06
2022-09-28T13:18:42.709Z,98480.91
2022-09-28T13:21:21.377Z,98485.91
2022-09-28T13:23:57.842Z,98481.41
2022-09-28T13:26:40.238Z,98481.31
2022-09-28T13:29:15.909Z,98473.59
2022-09-28T13:32:03.400Z,98469.38
2022-09-28T13:34:33.320Z,98465.13
2022-09-28T13:37:25.487Z,98467.31
2022-09-28T13:39:52.940Z,98469.13
2022-09-28T13:42:41.592Z,98468.09
2022-09-28T13:45:23.105Z,98473.06
2022-09-28T13:48:12.939Z,98469.19
2022-09-28T13:51:23.215Z,98468.69
2022-09-28T13:54:01.792Z,98480.53
2022-09-28T13:56:49.123Z,98487.44
2022-09-28T13:59:24.275Z,98482.63
2022-09-28T14:02:00.719Z,98480.31
2022-09-28T14:04:59.750Z,98474.56
2022-09-28T14:07:35.164Z,98477.78
2022-09-28T14:10:07.882Z,98474.97
2022-09-28T14:12:34.166Z,98470.47
2022-09-28T14:15:01.445Z,98473.06
2022-09-28T14:17:28.047Z,98482.06
2022-09-28T14:20:02.580Z,98471.72
2022-09-28T14:22:42.912Z,98470.59
2022-09-28T14:25:23.519Z,98485.28
2022-09-28T14:28:01.901Z,98483.06
2022-09-28T14:30:43.514Z,98482.34
2022-09-28T14:33:31.788Z,98477.84
2022-09-28T14:36:06.311Z,98477.25
2022-09-28T14:39:02.859Z,98480.22
2022-09-28T14:41:35.457Z,98486.31
2022-09-28T14:44:02.575Z,98490.81
2022-09-28T14:46:32.073Z,98482.81
2022-09-28T14:49:25.864Z,98487.72
2022-09-28T14:51:55.808Z,98485.72
2022-09-28T14:54:45.195Z,98486.59
2022-09-28T14:57:25.475Z,98491.78
2022-09-28T14:59:52.102Z,98490.56
2022-09-28T15:02:23.406Z,98484.94
2022-09-28T15:04:56.566Z,98489.13
2022-09-28T15:07:29.701Z,98495.22
2022-09-28T15:09:58.282Z,98492.88
2022-09-28T15:12:30.142Z,98488.13
2022-09-28T15:15:04.628Z,98494.47
2022-09-28T15:17:39.834Z,98487.59
2022-09-28T15:20:24.550Z,98482.25
2022-09-28T15:22:57.193Z,98492.94
2022-09-28T15:25:29.200Z,98489.19
2022-09-28T15:28:06.455Z,98502.34
2022-09-28T15:30:35.330Z,98495.81
2022-09-28T15:33:22.903Z,98492.44
2022-09-28T15:36:01.241Z,98488.66
2022-09-28T15:38:29.053Z,98497.59
2022-09-28T15:40:56.042Z,98490.66
2022-09-28T15:43:30.441Z,98498.56
2022-09-28T15:46:13.342Z,98503.44
2022-09-28T15:48:57.204Z,98499.53
2022-09-28T15:51:24.449Z,98498.44
2022-09-28T15:53:58.174Z,98501.97
2022-09-28T15:56:25.580Z,98502.09
2022-09-28T15:59:25.152Z,98502.53
2022-09-28T16:02:07.533Z,98499.91
2022-09-28T16:04:53.973Z,98505.00
2022-09-28T16:07:20.334Z,98507.44
2022-09-28T16:10:12.720Z,98505.44
2022-09-28T16:12:48.046Z,98503.88
2022-09-28T16:15:20.611Z,98506.84
2022-09-28T16:18:06.751Z,98507.34
2022-09-28T16:20:41.000Z,98504.38
2022-09-28T16:23:21.067Z,98507.22
2022-09-28T16:26:03.038Z,98512.06
2022-09-28T16:28:38.161Z,98516.38
2022-09-28T16:31:04.656Z,98512.06
2022-09-28T16:33:41.207Z,98516.88
2022-09-28T16:36:12.451Z,98511.91
2022-09-28T16:38:38.835Z,98509.63
2022-09-28T16:41:05.981Z,98509.06
2022-09-28T16:43:36.508Z,98517.41
2022-09-28T16:46:12.675Z,98516.66
2022-09-28T16:48:48.907Z,98517.00
2022-09-28T16:51:16.447Z,98516.47
2022-09-28T16:54:02.559Z,98513.72
2022-09-28T16:56:29.700Z,98519.72
2022-09-28T16:58:56.759Z,98527.00
2022-09-28T17:01:23.910Z,98522.84
2022-09-28T17:03:51.005Z,98532.09
2022-09-28T17:06:19.194Z,98531.03
2022-09-28T17:08:45.624Z,98532.09
2022-09-28T17:11:22.775Z,98541.91
2022-09-28T17:13:51.731Z,98544.44
2022-09-28T17:16:36.690Z,98548.25
2022-09-28T17:19:28.559Z,98548.63
2022-09-28T17:21:54.923Z,98547.09
2022-09-28T17:24:21.451Z,98549.19
2022-09-28T17:26:50.877Z,98558.16
2022-09-28T17:29:18.558Z,98561.00
2022-09-28T17:31:46.529Z,98558.69
2022-09-28T17:34:15.922Z,98563.50
2022-09-28T17:36:43.507Z,98554.59
2022-09-28T17:39:14.326Z,98560.66
2022-09-28T17:41:41.011Z,98564.78
2022-09-28T17:44:07.878Z,98564.66
2022-09-28T17:46:37.008Z,98572.03
2022-09-28T17:49:05.666Z,98580.09
2022-09-28T17:51:37.432Z,98570.22
2022-09-28T17:54:05.316Z,98573.94
2022-09-28T17:56:32.766Z,98578.56
2022-09-28T17:59:01.176Z,98574.19
2022-09-28T18:01:33.661Z,98577.72
2022-09-28T18:04:01.741Z,98585.13
2022-09-28T18:06:28.199Z,98568.34
2022-09-28T18:08:54.765Z,98575.78
2022-09-28T18:11:21.437Z,98581.66
2022-09-28T18:13:47.795Z,98582.47
2022-09-28T18:16:15.015Z,98583.34
2022-09-28T18:18:41.583Z,98592.97
2022-09-28T18:21:08.166Z,98588.00
2022-09-28T18:23:38.467Z,98589.88
2022-09-28T18:26:11.013Z,98586.94
2022-09-28T18:28:37.562Z,98588.25
2022-09-28T18:31:13.524Z,98591.78
2022-09-28T18:33:40.701Z,98595.47
2022-09-28T18:36:07.892Z,98595.19
2022-09-28T18:38:38.223Z,98598.66
2022-09-28T18:41:08.775Z,98599.19
2022-09-28T18:43:36.428Z,98599.63
2022-09-28T18:46:07.543Z,98603.47
2022-09-28T18:48:34.021Z,98602.19
2022-09-28T18:51:00.333Z,98610.06
2022-09-28T18:53:26.879Z,98612.53
2022-09-28T18:55:53.259Z,98616.59
2022-09-28T18:58:19.617Z,98623.09
2022-09-28T19:00:46.358Z,98623.47
2022-09-28T19:03:14.341Z,98619.41
2022-09-28T19:05:42.361Z,98623.97
2022-09-28T19:08:10.061Z,98625.09
2022-09-28T19:10:36.706Z,98631.09
2022-09-28T19:13:03.053Z,98632.38
2022-09-28T19:15:29.474Z,98636.50
2022-09-28T19:17:57.033Z,98629.88
2022-09-28T19:20:23.622Z,98636.75
2022-09-28T19:22:50.521Z,98637.44
2022-09-28T19:25:17.011Z,98637.16
2022-09-28T19:27:43.761Z,98634.25
2022-09-28T19:30:10.631Z,98632.63
2022-09-28T19:32:37.863Z,98637.06
2022-09-28T19:35:05.077Z,98641.50
2022-09-28T19:37:35.258Z,98632.88
2022-09-28T19:40:03.734Z,98638.94
2022-09-28T19:42:30.122Z,98641.38
2022-09-28T19:44:56.494Z,98644.75
2022-09-28T19:47:23.087Z,98652.81
2022-09-28T19:49:50.002Z,98654.91
2022-09-28T19:52:17.330Z,98657.84
2022-09-28T19:54:48.267Z,98655.72
2022-09-28T19:57:15.754Z,98661.03
2022-09-28T19:59:42.374Z,98662.97
2022-09-28T20:02:10.725Z,98670.88
2022-09-28T20:04:37.196Z,98671.31
2022-09-28T20:07:04.321Z,98672.09
2022-09-28T20:09:32.186Z,98673.88
2022-09-28T20:11:58.636Z,98671.84
2022-09-28T20:14:26.459Z,98671.13
2022-09-28T20:16:57.067Z,98679.09
2022-09-28T20:19:23.483Z,98688.50
2022-09-28T20:21:50.571Z,98691.81
2022-09-28T20:24:17.399Z,98688.94
2022-09-28T20:26:44.550Z,98695.09
2022-09-28T20:29:11.341Z,98697.25
2022-09-28T20:31:38.191Z,98695.53
2022-09-28T20:34:06.523Z,98691.00
2022-09-28T20:36:33.548Z,98688.88
2022-09-28T20:39:04.288Z,98694.75
2022-09-28T20:41:35.461Z,98691.44
2022-09-28T20:44:05.568Z,98682.88
2022-09-28T20:46:32.883Z,98690.88
2022-09-28T20:48:59.603Z,98693.50
2022-09-28T20:51:26.263Z,98681.28
2022-09-28T20:53:55.438Z,98690.38
2022-09-28T20:56:30.465Z,98695.22
2022-09-28T20:58:57.098Z,98701.38
2022-09-28T21:01:28.499Z,98694.13
2022-09-28T21:03:57.387Z,98703.31
2022-09-28T21:06:29.301Z,98689.91
2022-09-28T21:08:55.733Z,98692.66
2022-09-28T21:11:24.438Z,98690.22
2022-09-28T21:13:58.034Z,98689.09
2022-09-28T21:16:25.957Z,98689.91
2022-09-28T21:18:52.279Z,98679.72
2022-09-28T21:21:20.310Z,98683.09
2022-09-28T21:23:47.074Z,98681.25
2022-09-28T21:26:16.092Z,98688.22
2022-09-28T21:28:44.585Z,98686.06
2022-09-28T21:31:12.058Z,98682.13
2022-09-28T21:33:38.559Z,98675.66
2022-09-28T21:36:06.752Z,98687.03
2022-09-28T21:38:34.223Z,98681.41
2022-09-28T21:41:01.017Z,98687.19
2022-09-28T21:43:28.715Z,98684.34
2022-09-28T21:45:56.153Z,98682.03
2022-09-28T21:48:24.300Z,98686.84
2022-09-28T21:51:05.096Z,98687.38
2022-09-28T21:53:34.506Z,98695.84
2022-09-28T21:56:02.001Z,98681.09
2022-09-28T21:58:30.472Z,98686.38
2022-09-28T22:01:07.080Z,98688.84
2022-09-28T22:03:35.330Z,98678.25
2022-09-28T22:06:05.233Z,98671.59
2022-09-28T22:08:32.126Z,98682.31
2022-09-28T22:11:11.185Z,98681.31
2022-09-28T22:13:48.006Z,98682.78
2022-09-28T22:16:16.313Z,98686.72
2022-09-28T22:18:43.320Z,98688.25
2022-09-28T22:21:16.602Z,98688.38
2022-09-28T22:23:43.112Z,98701.00
2022-09-28T22:26:18.842Z,98703.88
2022-09-28T22:28:47.919Z,98707.56
2022-09-28T22:31:15.856Z,98705.97
2022-09-28T22:33:42.323Z,98713.66
2022-09-28T22:36:08.876Z,98707.03
2022-09-28T22:38:35.631Z,98708.03
2022-09-28T22:41:03.615Z,98708.41
2022-09-28T22:43:30.677Z,98709.47
2022-09-28T22:46:09.529Z,98713.09
2022-09-28T22:48:36.833Z,98705.66
2022-09-28T22:51:05.245Z,98700.50
2022-09-28T22:53:32.178Z,98699.59
2022-09-28T22:56:00.629Z,98704.00
2022-09-28T22:58:27.758Z,98708.03
2022-09-28T23:00:57.457Z,98713.38
2022-09-28T23:03:23.958Z,98708.94
2022-09-28T23:05:54.905Z,98702.13
2022-09-28T23:08:22.355Z,98703.34
2022-09-28T23:10:49.203Z,98703.25
2022-09-28T23:13:15.922Z,98706.47
2022-09-28T23:15:42.367Z,98705.09
2022-09-28T23:18:09.280Z,98707.03
2022-09-28T23:20:36.481Z,98702.53
2022-09-28T23:23:02.860Z,98714.16
2022-09-28T23:25:29.243Z,98703.00
2022-09-28T23:27:55.687Z,98710.34
2022-09-28T23:30:23.618Z,98703.88
2022-09-28T23:32:52.062Z,98709.59
2022-09-28T23:35:18.440Z,98715.81
2022-09-28T23:37:49.587Z,98709.97
2022-09-28T23:40:15.953Z,98700.94
2022-09-28T23:42:42.285Z,98709.88
2022-09-28T23:45:09.314Z,98711.78
2022-09-28T23:47:37.423Z,98707.22
2022-09-28T23:50:05.958Z,98710.25
2022-09-28T23:52:32.728Z,98714.97
2022-09-28T23:54:59.145Z,98712.00
2022-09-28T23:57:25.501Z,98707.56
2022-09-28T23:59:53.106Z,98712.84
